Time;durP1;ratioP1;P1;durP2;ratioP2;P2;SDS_P1;SDS_P2;PMS_P1;PMS_P2;Temp;Humidity;BMP_temperature;BMP_pressure;BME280_temperature;BME280_humidity;BME280_pressure;Samples;Min_cycle;Max_cycle;Signal;HPM_P1;HPM_P2
2024/04/17 00:01:00;;;;;;;12.90;1.33;;;;;;;13.45;68.79;99395.47;5418861;26;20023;-79
2024/04/17 00:04:05;;;;;;;12.43;1.40;;;;;;;12.96;70.31;99393.97;5418710;26;20366;-79
2024/04/17 00:07:10;;;;;;;14.55;1.63;;;;;;;13.48;68.56;99384.31;5418645;26;20475;-78
2024/04/17 00:10:14;;;;;;;8.57;1.15;;;;;;;13.37;69.17;99379.31;5417436;26;20474;-78
2024/04/17 00:13:19;;;;;;;9.73;1.60;;;;;;;13.00;70.62;99385.34;5418784;26;20019;-79
2024/04/17 00:16:25;;;;;;;9.30;1.70;;;;;;;13.22;70.06;99375.69;5418542;26;20023;-79
2024/04/17 00:19:29;;;;;;;10.15;1.48;;;;;;;13.58;68.69;99379.53;5418440;26;20023;-79
2024/04/17 00:22:34;;;;;;;10.73;1.38;;;;;;;13.58;68.79;99376.00;5418717;26;20027;-79
2024/04/17 00:25:38;;;;;;;6.90;1.40;;;;;;;13.38;69.76;99374.78;5418434;26;20031;-78
2024/04/17 00:28:43;;;;;;;9.02;1.27;;;;;;;13.15;71.18;99365.78;5418345;26;20023;-80
2024/04/17 00:31:48;;;;;;;6.97;1.15;;;;;;;13.29;70.44;99365.88;5418631;26;20023;-79
2024/04/17 00:34:52;;;;;;;9.70;1.58;;;;;;;12.98;71.91;99367.69;5418270;26;20027;-79
2024/04/17 00:37:57;;;;;;;11.70;1.80;;;;;;;13.14;71.24;99358.72;5417134;26;20023;-79
2024/04/17 00:41:01;;;;;;;9.20;1.23;;;;;;;13.35;70.07;99353.56;5418362;26;20023;-79
2024/04/17 00:44:06;;;;;;;9.18;1.83;;;;;;;13.19;71.28;99349.09;5417086;26;20027;-78
2024/04/17 00:47:11;;;;;;;10.48;2.28;;;;;;;13.34;70.70;99352.72;5418340;26;20023;-79
2024/04/17 00:50:16;;;;;;;24.40;3.33;;;;;;;13.34;70.80;99339.25;5417126;26;20362;-79
2024/04/17 00:53:25;;;;;;;8.07;1.38;;;;;;;13.33;71.17;99342.94;5418241;26;20019;-79
2024/04/17 00:56:30;;;;;;;6.13;1.17;;;;;;;13.30;70.89;99346.00;5418221;26;20483;-79
2024/04/17 00:59:35;;;;;;;8.05;1.30;;;;;;;13.27;71.34;99346.38;5417966;26;20020;-79
2024/04/17 01:02:40;;;;;;;7.95;1.58;;;;;;;13.40;72.61;99343.09;5416293;26;20478;-79
2024/04/17 01:05:45;;;;;;;12.48;2.10;;;;;;;13.23;73.66;99338.81;5417770;26;20023;-79
2024/04/17 01:08:49;;;;;;;9.70;2.33;;;;;;;13.22;74.20;99346.06;5417748;26;20413;-79
2024/04/17 01:11:53;;;;;;;12.27;2.08;;;;;;;13.24;73.73;99341.31;5417701;26;20023;-79
2024/04/17 01:14:58;;;;;;;12.98;2.10;;;;;;;13.21;74.00;99347.06;5416673;26;20019;-79
2024/04/17 01:18:04;;;;;;;11.35;2.55;;;;;;;13.13;74.03;99347.13;5417542;26;20023;-79
2024/04/17 01:21:09;;;;;;;8.73;1.33;;;;;;;13.20;73.64;99340.00;5417639;26;20371;-79
2024/04/17 01:24:13;;;;;;;8.93;1.90;;;;;;;13.03;74.04;99343.75;5416242;26;20023;-78
2024/04/17 01:27:18;;;;;;;6.95;1.52;;;;;;;13.05;74.45;99342.56;5416388;26;20024;-79
2024/04/17 01:30:22;;;;;;;13.55;1.55;;;;;;;12.95;75.63;99350.00;5417378;26;20385;-79
2024/04/17 01:33:27;;;;;;;7.53;1.33;;;;;;;12.79;76.12;99343.81;5417169;26;20019;-78
2024/04/17 01:36:32;;;;;;;13.88;1.95;;;;;;;12.82;76.04;99351.56;5415969;26;20044;-79
2024/04/17 01:39:36;;;;;;;10.88;1.98;;;;;;;12.81;76.76;99360.66;5416243;26;20020;-79
2024/04/17 01:42:40;;;;;;;6.45;1.27;;;;;;;12.67;77.82;99364.06;5417476;26;20109;-79
2024/04/17 01:45:48;;;;;;;8.63;1.20;;;;;;;12.64;76.92;99367.13;5417171;26;20428;-78
2024/04/17 01:48:53;;;;;;;6.68;1.83;;;;;;;12.61;75.95;99372.84;5417228;26;20365;-79
2024/04/17 01:51:58;;;;;;;8.52;1.42;;;;;;;12.58;76.67;99371.31;5417014;26;20024;-79
2024/04/17 01:55:02;;;;;;;6.28;1.80;;;;;;;12.69;76.32;99357.47;5416792;26;20482;-79
2024/04/17 01:58:07;;;;;;;13.32;1.50;;;;;;;12.64;76.40;99359.84;5417090;26;20020;-79
2024/04/17 02:01:11;;;;;;;9.13;2.10;;;;;;;12.61;76.58;99359.38;5415264;26;20023;-79
2024/04/17 02:04:16;;;;;;;8.70;1.73;;;;;;;12.63;76.32;99355.50;5417021;26;20023;-79
2024/04/17 02:07:20;;;;;;;10.07;2.13;;;;;;;12.61;76.54;99362.06;5416817;26;20038;-79
2024/04/17 02:10:25;;;;;;;9.45;1.55;;;;;;;12.55;76.60;99357.34;5416676;26;20019;-78
2024/04/17 02:13:29;;;;;;;10.43;1.55;;;;;;;12.45;76.65;99360.22;5417111;26;20024;-78
2024/04/17 02:16:33;;;;;;;7.68;1.48;;;;;;;12.40;77.72;99357.22;5416863;26;20020;-79
2024/04/17 02:19:38;;;;;;;7.63;1.23;;;;;;;12.46;77.34;99369.16;5416912;26;20458;-79
2024/04/17 02:22:42;;;;;;;4.68;1.80;;;;;;;12.30;77.75;99360.09;5416987;26;20025;-79
2024/04/17 02:25:48;;;;;;;7.18;1.60;;;;;;;12.43;77.36;99361.41;5416794;26;20482;-79
2024/04/17 02:28:53;;;;;;;8.93;1.30;;;;;;;12.42;77.89;99368.66;5413570;26;20023;-79
2024/04/17 02:31:57;;;;;;;4.97;1.20;;;;;;;12.43;77.25;99358.72;5413927;26;20400;-79
2024/04/17 02:35:01;;;;;;;7.70;1.80;;;;;;;12.25;77.70;99359.75;5393410;26;20035;-79
2024/04/17 02:38:06;;;;;;;6.50;1.60;;;;;;;12.20;78.36;99358.56;5393386;26;20451;-80
2024/04/17 02:41:10;;;;;;;9.45;2.35;;;;;;;12.13;78.65;99353.03;5395468;26;20039;-80
2024/04/17 02:44:16;;;;;;;4.47;1.45;;;;;;;12.13;78.25;99353.03;5413614;26;20023;-79
2024/04/17 02:47:20;;;;;;;6.85;1.55;;;;;;;12.09;78.50;99332.88;5413631;26;20023;-79
2024/04/17 02:50:24;;;;;;;4.15;1.10;;;;;;;11.99;78.86;99348.34;5413589;26;20027;-79
2024/04/17 02:53:29;;;;;;;8.10;1.60;;;;;;;12.03;78.13;99354.22;5413421;26;20023;-79
2024/04/17 02:56:33;;;;;;;4.90;1.67;;;;;;;12.08;78.27;99344.63;5392694;26;20019;-79
2024/04/17 02:59:38;;;;;;;4.38;1.40;;;;;;;12.05;78.76;99333.34;5413514;26;20023;-79
2024/04/17 03:02:42;;;;;;;8.30;1.60;;;;;;;12.13;78.08;99344.13;5413283;26;20023;-79
2024/04/17 03:05:47;;;;;;;3.50;1.65;;;;;;;12.05;78.69;99344.13;5414384;26;20015;-79
2024/04/17 03:08:51;;;;;;;3.65;1.30;;;;;;;12.16;78.10;99347.31;5416952;26;20023;-80
2024/04/17 03:11:56;;;;;;;4.35;1.50;;;;;;;12.16;78.23;99350.03;5451679;26;20023;-79
2024/04/17 03:15:01;;;;;;;5.68;1.60;;;;;;;12.22;77.24;99356.59;5456060;26;20023;-79
2024/04/17 03:18:06;;;;;;;3.55;1.42;;;;;;;12.20;77.60;99354.03;5454484;26;20022;-80
2024/04/17 03:21:11;;;;;;;6.65;1.50;;;;;;;12.31;77.01;99353.72;5455476;26;20322;-79
2024/04/17 03:24:15;;;;;;;3.20;1.13;;;;;;;12.29;76.42;99357.59;5455480;26;20019;-79
2024/04/17 03:27:20;;;;;;;3.95;1.30;;;;;;;12.23;76.75;99358.25;5454263;26;20019;-80
2024/04/17 03:30:24;;;;;;;7.80;1.15;;;;;;;12.27;76.35;99356.91;5455352;26;20023;-79
2024/04/17 03:33:29;;;;;;;4.68;1.27;;;;;;;12.42;76.60;99354.38;5455561;26;20022;-78
2024/04/17 03:36:33;;;;;;;8.68;2.00;;;;;;;12.50;76.59;99346.25;5455341;26;20019;-79
2024/04/17 03:39:38;;;;;;;3.22;1.38;;;;;;;12.58;75.74;99354.31;5455127;26;20023;-78
2024/04/17 03:42:42;;;;;;;3.47;1.42;;;;;;;12.70;75.62;99351.09;5454359;26;20019;-80
2024/04/17 03:45:46;;;;;;;7.35;1.67;;;;;;;12.76;75.31;99353.13;5454031;26;20027;-79
2024/04/17 03:48:51;;;;;;;5.05;1.42;;;;;;;12.72;76.46;99350.91;5455131;26;20019;-80
2024/04/17 03:51:56;;;;;;;7.75;2.70;;;;;;;12.90;75.27;99346.16;5455117;26;20023;-78
2024/04/17 03:55:00;;;;;;;6.07;1.48;;;;;;;12.96;75.39;99340.91;5454372;26;20022;-79
2024/04/17 03:58:05;;;;;;;7.82;1.63;;;;;;;12.94;75.31;99337.53;5455371;26;20022;-79
2024/04/17 04:01:09;;;;;;;11.23;1.52;;;;;;;12.94;74.70;99339.41;5455013;26;20021;-77
2024/04/17 04:04:14;;;;;;;7.53;1.40;;;;;;;12.78;75.27;99342.16;5455117;26;20023;-78
2024/04/17 04:07:18;;;;;;;4.70;1.83;;;;;;;12.72;75.56;99337.44;5453635;26;20022;-78
2024/04/17 04:10:23;;;;;;;7.00;1.75;;;;;;;12.72;75.29;99332.06;5453621;26;20023;-79
2024/04/17 04:13:28;;;;;;;5.47;1.50;;;;;;;12.65;75.69;99328.38;5457171;26;20026;-78
2024/04/17 04:16:33;;;;;;;9.18;2.00;;;;;;;12.60;76.95;99337.00;5491041;26;20026;-79
2024/04/17 04:19:37;;;;;;;9.35;2.03;;;;;;;12.57;76.58;99344.56;5491249;26;20026;-78
2024/04/17 04:22:42;;;;;;;6.38;1.48;;;;;;;12.45;77.83;99346.78;5491025;26;20018;-78
2024/04/17 04:25:47;;;;;;;12.32;2.35;;;;;;;12.42;77.39;99349.81;5491104;26;20446;-79
2024/04/17 04:28:52;;;;;;;8.32;1.60;;;;;;;12.39;77.63;99350.97;5490905;26;20026;-80
2024/04/17 04:31:57;;;;;;;6.15;1.60;;;;;;;12.40;77.72;99355.38;5489604;26;20018;-79
2024/04/17 04:35:01;;;;;;;7.68;2.00;;;;;;;12.31;78.32;99352.88;5490960;26;20026;-79
2024/04/17 04:38:06;;;;;;;10.48;2.10;;;;;;;12.38;78.08;99354.72;5489629;26;20023;-80
2024/04/17 04:41:10;;;;;;;6.25;1.85;;;;;;;12.35;78.04;99357.72;5490689;26;20360;-79
2024/04/17 04:44:15;;;;;;;7.00;2.15;;;;;;;12.17;78.74;99357.06;5490892;26;20018;-80
2024/04/17 04:47:19;;;;;;;4.63;2.08;;;;;;;12.30;78.46;99357.41;5491006;26;20022;-80
2024/04/17 04:50:24;;;;;;;20.85;2.22;;;;;;;12.33;78.40;99364.28;5463626;26;20031;-79
2024/04/17 04:53:29;;;;;;;6.68;2.00;;;;;;;12.15;78.71;99359.09;5454282;26;20027;-80
2024/04/17 04:56:34;;;;;;;7.95;2.25;;;;;;;12.12;79.18;99361.28;5454314;26;20022;-79
2024/04/17 04:59:39;;;;;;;5.75;1.90;;;;;;;12.16;79.42;99358.09;5453923;26;20046;-79
2024/04/17 05:02:43;;;;;;;5.70;2.05;;;;;;;12.09;79.35;99359.78;5452949;26;20022;-80
2024/04/17 05:05:51;;;;;;;6.15;2.03;;;;;;;12.17;79.19;99353.56;5452903;26;20027;-79
2024/04/17 05:08:56;;;;;;;9.15;2.38;;;;;;;12.32;77.75;99358.06;5431855;26;20022;-79
2024/04/17 05:12:01;;;;;;;7.85;2.75;;;;;;;12.32;78.03;99357.22;5454003;26;20026;-79
2024/04/17 05:15:06;;;;;;;4.78;2.03;;;;;;;12.32;78.50;99355.38;5432216;26;20018;-79
2024/04/17 05:18:10;;;;;;;4.68;2.22;;;;;;;12.32;78.12;99354.53;5453759;26;20026;-79
2024/04/17 05:21:16;;;;;;;7.07;2.30;;;;;;;12.21;77.82;99350.34;5453900;26;20027;-78
2024/04/17 05:24:21;;;;;;;6.03;2.15;;;;;;;12.18;78.73;99348.00;5454462;26;20026;-79
2024/04/17 05:27:25;;;;;;;5.50;2.80;;;;;;;12.33;78.30;99351.69;5416618;26;20023;-79
2024/04/17 05:30:30;;;;;;;4.20;1.90;;;;;;;12.49;77.79;99349.97;5418001;26;20023;-79
2024/04/17 05:33:35;;;;;;;7.28;2.58;;;;;;;12.64;77.44;99353.66;5417917;26;20055;-79
2024/04/17 05:36:40;;;;;;;6.00;2.38;;;;;;;12.77;76.35;99362.84;5415656;26;20028;-79
2024/04/17 05:39:45;;;;;;;6.15;2.65;;;;;;;12.70;76.78;99363.72;5417656;26;20023;-78
2024/04/17 05:42:50;;;;;;;4.43;2.30;;;;;;;12.71;76.82;99360.88;5417645;26;20459;-80
2024/04/17 05:45:54;;;;;;;7.57;2.20;;;;;;;12.80;76.15;99354.44;5417584;26;20023;-77
2024/04/17 05:48:59;;;;;;;10.00;4.07;;;;;;;12.84;75.85;99353.06;5417797;26;20410;-79
2024/04/17 05:52:09;;;;;;;7.18;2.92;;;;;;;12.96;75.76;99348.16;5417705;26;20016;-78
2024/04/17 05:55:14;;;;;;;9.82;2.67;;;;;;;13.19;75.32;99343.69;5417762;26;20023;-76
2024/04/17 05:58:18;;;;;;;8.73;2.25;;;;;;;13.38;74.11;99348.66;5433386;26;20029;-74
2024/04/17 06:01:26;;;;;;;12.45;2.70;;;;;;;13.49;73.22;99353.66;5413974;26;20015;-75
2024/04/17 06:04:30;;;;;;;6.28;2.20;;;;;;;13.60;72.77;99364.00;5439822;26;20031;-74
2024/04/17 06:07:37;;;;;;;7.85;2.45;;;;;;;13.72;72.88;99360.94;5456069;26;20026;-75
2024/04/17 06:10:42;;;;;;;3.83;1.90;;;;;;;13.68;72.79;99363.13;5417464;26;20023;-76
2024/04/17 06:13:47;;;;;;;3.55;1.88;;;;;;;14.02;72.27;99360.03;5427367;26;20463;-75
2024/04/17 06:16:51;;;;;;;9.27;2.47;;;;;;;14.16;71.57;99370.03;5416453;26;20020;-75
2024/04/17 06:19:57;;;;;;;6.53;2.35;;;;;;;14.23;70.78;99363.72;5425501;26;19999;-77
2024/04/17 06:23:04;;;;;;;6.57;2.22;;;;;;;14.95;68.38;99362.19;5430236;26;20023;-77
2024/04/17 06:26:09;;;;;;;4.75;2.55;;;;;;;15.19;67.45;99362.88;5471535;26;20042;-78
2024/04/17 06:29:14;;;;;;;5.60;2.15;;;;;;;14.96;67.20;99379.25;5462378;26;20024;-78
2024/04/17 06:32:18;;;;;;;6.57;2.05;;;;;;;14.43;69.65;99363.25;5415391;26;20024;-79
2024/04/17 06:35:23;;;;;;;6.95;2.70;;;;;;;14.64;70.06;99377.69;5416272;26;20035;-78
2024/04/17 06:38:28;;;;;;;9.95;2.80;;;;;;;14.53;70.69;99378.16;5415212;26;20028;-80
2024/04/17 06:41:32;;;;;;;13.68;3.78;;;;;;;14.62;69.75;99371.66;5415301;26;20023;-79
2024/04/17 06:44:38;;;;;;;11.75;2.72;;;;;;;14.70;69.38;99371.56;5433714;26;20469;-79
2024/04/17 06:47:47;;;;;;;13.40;2.80;;;;;;;14.85;69.23;99371.59;5413722;26;20361;-79
2024/04/17 06:50:52;;;;;;;4.90;2.60;;;;;;;15.08;68.51;99374.19;5415880;26;20023;-80
2024/04/17 06:53:59;;;;;;;7.88;2.35;;;;;;;15.16;67.34;99371.41;5419907;26;20027;-80
2024/04/17 06:57:04;;;;;;;7.38;1.88;;;;;;;15.24;66.89;99371.28;5464367;26;20039;-79
2024/04/17 07:00:09;;;;;;;10.32;2.22;;;;;;;15.17;66.30;99364.94;5442308;26;20023;-78
2024/04/17 07:03:14;;;;;;;9.65;3.58;;;;;;;15.13;66.71;99375.31;5482979;26;20022;-79
2024/04/17 07:06:18;;;;;;;5.28;1.90;;;;;;;15.04;66.90;99372.88;5486588;26;20437;-78
2024/04/17 07:09:23;;;;;;;6.50;1.88;;;;;;;14.99;67.16;99371.56;5486848;26;20030;-78
2024/04/17 07:12:28;;;;;;;6.82;1.90;;;;;;;14.99;66.99;99368.88;5487103;26;20030;-78
2024/04/17 07:15:32;;;;;;;6.50;1.77;;;;;;;14.94;66.36;99365.06;5488173;26;20388;-77
2024/04/17 07:18:38;;;;;;;5.50;1.73;;;;;;;14.79;66.53;99375.84;5487326;26;20026;-76
2024/04/17 07:21:42;;;;;;;6.85;2.60;;;;;;;14.58;66.56;99377.59;5487490;26;20030;-77
2024/04/17 07:24:47;;;;;;;6.55;2.85;;;;;;;14.49;67.18;99384.13;5488018;26;20026;-77
2024/04/17 07:27:54;;;;;;;9.90;2.25;;;;;;;14.59;67.35;99385.50;5392287;26;20346;-78
2024/04/17 07:30:59;;;;;;;12.13;2.53;;;;;;;14.72;66.72;99388.44;5409802;26;20031;-78
2024/04/17 07:34:04;;;;;;;7.95;3.40;;;;;;;15.16;66.05;99385.72;5412700;26;20039;-77
2024/04/17 07:37:08;;;;;;;7.65;1.83;;;;;;;15.81;63.77;99382.19;5353870;26;20406;-79
2024/04/17 07:40:14;;;;;;;4.93;1.77;;;;;;;16.39;61.42;99378.41;5376739;26;20036;-78
2024/04/17 07:43:19;;;;;;;8.63;2.45;;;;;;;17.05;58.88;99377.03;5377125;26;20036;-79
2024/04/17 07:46:24;;;;;;;14.00;3.47;;;;;;;18.41;54.01;99377.69;5376180;26;20036;-79
2024/04/17 07:49:29;;;;;;;10.68;2.42;;;;;;;20.37;48.16;99376.25;5341858;26;20025;-78
2024/04/17 07:52:33;;;;;;;8.18;2.58;;;;;;;21.65;43.72;99373.44;5355989;26;20032;-77
2024/04/17 07:55:38;;;;;;;8.60;3.15;;;;;;;22.34;41.24;99372.94;5375481;26;20028;-78
2024/04/17 07:58:43;;;;;;;10.35;3.25;;;;;;;22.45;40.67;99377.59;5406525;26;20027;-77
2024/04/17 08:01:48;;;;;;;9.02;2.88;;;;;;;22.40;40.31;99362.94;5454443;26;20026;-78
2024/04/17 08:04:52;;;;;;;7.65;2.90;;;;;;;22.07;41.14;99366.22;5453501;26;20026;-77
2024/04/17 08:07:57;;;;;;;13.82;2.78;;;;;;;23.28;38.11;99366.47;5452546;26;20030;-77
2024/04/17 08:11:02;;;;;;;8.27;2.20;;;;;;;24.88;36.06;99367.91;5454121;26;20365;-77
2024/04/17 08:14:08;;;;;;;8.10;2.58;;;;;;;26.34;33.74;99358.78;5454644;26;20473;-77
2024/04/17 08:17:12;;;;;;;9.07;2.92;;;;;;;27.79;31.54;99364.75;5454373;26;20042;-78
2024/04/17 08:20:17;;;;;;;9.15;2.53;;;;;;;29.18;29.18;99369.91;5454225;26;20031;-78
2024/04/17 08:23:22;;;;;;;11.88;2.53;;;;;;;29.05;29.00;99367.72;5452700;26;20048;-76
2024/04/17 08:26:27;;;;;;;5.88;2.25;;;;;;;30.04;28.45;99370.47;5453203;26;20027;-83
2024/04/17 08:29:32;;;;;;;7.95;2.28;;;;;;;31.62;26.75;99364.16;5454026;26;20027;-79
2024/04/17 08:32:37;;;;;;;10.85;2.50;;;;;;;32.08;26.71;99359.69;5456764;26;20031;-76
2024/04/17 08:35:41;;;;;;;7.45;2.22;;;;;;;31.82;27.11;99365.84;5418186;26;20466;-82
2024/04/17 08:38:46;;;;;;;9.90;2.75;;;;;;;31.67;26.58;99366.88;5416352;26;20020;-78
2024/04/17 08:41:55;;;;;;;11.80;2.72;;;;;;;31.07;26.48;99364.72;5444260;26;20030;-77
2024/04/17 08:45:07;;;;;;;12.02;2.60;;;;;;;30.16;27.41;99355.16;5454489;26;20034;-78
2024/04/17 08:48:11;;;;;;;7.43;2.50;;;;;;;29.61;27.56;99364.53;5453706;26;20027;-78
2024/04/17 08:51:17;;;;;;;9.23;2.97;;;;;;;28.78;28.81;99352.28;5452805;26;20031;-78
2024/04/17 08:54:22;;;;;;;9.68;3.08;;;;;;;27.07;31.00;99359.97;5453722;26;20023;-79
2024/04/17 08:57:27;;;;;;;7.18;3.03;;;;;;;25.93;32.60;99353.09;5418226;26;20027;-78
2024/04/17 09:00:36;;;;;;;6.30;2.80;;;;;;;24.61;34.44;99355.94;5415867;26;20032;-78
2024/04/17 09:03:42;;;;;;;9.15;2.90;;;;;;;24.00;35.20;99361.38;5429558;26;20035;-78
2024/04/17 09:06:50;;;;;;;8.15;3.05;;;;;;;23.54;36.26;99356.91;5460720;26;20035;-78
2024/04/17 09:09:55;;;;;;;5.25;2.58;;;;;;;23.62;36.97;99354.63;5452467;26;20031;-77
2024/04/17 09:13:01;;;;;;;9.30;5.75;;;;;;;23.35;36.65;99353.47;5452172;26;20034;-77
2024/04/17 09:16:06;;;;;;;9.13;3.03;;;;;;;23.17;36.89;99362.66;5451417;26;20034;-76
2024/04/17 09:19:11;;;;;;;8.98;2.63;;;;;;;23.04;36.90;99351.09;5452949;26;20026;-77
2024/04/17 09:22:15;;;;;;;7.95;3.60;;;;;;;23.13;37.13;99357.91;5450503;26;20027;-76
2024/04/17 09:25:20;;;;;;;8.25;3.17;;;;;;;22.77;37.88;99355.41;5452518;26;20031;-77
2024/04/17 09:28:25;;;;;;;8.57;2.70;;;;;;;22.28;38.65;99356.63;5413088;26;20486;-77
2024/04/17 09:31:30;;;;;;;8.52;2.85;;;;;;;21.95;39.54;99349.75;5412283;26;20039;-77
2024/04/17 09:34:34;;;;;;;9.05;2.60;;;;;;;21.89;39.97;99352.59;5390765;26;19999;-79
2024/04/17 09:37:39;;;;;;;10.70;3.03;;;;;;;21.67;40.03;99346.75;5409827;26;20027;-78
2024/04/17 09:40:45;;;;;;;8.77;2.60;;;;;;;21.05;41.61;99339.75;5412979;26;20027;-76
2024/04/17 09:43:56;;;;;;;6.68;2.42;;;;;;;20.71;42.45;99340.28;5412846;26;20027;-77
2024/04/17 09:47:02;;;;;;;7.30;2.30;;;;;;;20.51;43.52;99326.84;5412406;26;20035;-76
2024/04/17 09:50:14;;;;;;;8.32;2.67;;;;;;;20.54;43.44;99322.84;5412737;26;20028;-76
2024/04/17 09:53:19;;;;;;;7.28;2.33;;;;;;;20.20;43.68;99323.28;5412766;26;20020;-77
2024/04/17 09:56:25;;;;;;;8.80;2.53;;;;;;;20.15;45.67;99320.41;5391648;26;20031;-76
2024/04/17 09:59:32;;;;;;;6.22;2.50;;;;;;;20.44;44.33;99317.84;5442178;26;20035;-75
2024/04/17 10:02:39;;;;;;;11.20;3.05;;;;;;;20.49;43.84;99314.50;5452744;26;20034;-76
2024/04/17 10:05:44;;;;;;;8.13;2.60;;;;;;;20.35;44.53;99308.31;5452041;26;20031;-76
2024/04/17 10:08:51;;;;;;;7.85;2.65;;;;;;;20.05;45.27;99308.09;5452863;26;20027;-77
2024/04/17 10:11:56;;;;;;;9.35;2.53;;;;;;;20.05;44.00;99304.53;5452061;26;20027;-76
2024/04/17 10:15:02;;;;;;;12.88;4.25;;;;;;;20.01;45.02;99293.25;5417210;26;20358;-76
2024/04/17 10:18:07;;;;;;;10.23;4.07;;;;;;;20.16;45.67;99292.09;5443642;26;20026;-75
2024/04/17 10:21:23;;;;;;;6.30;1.80;;;;;;;19.98;41.69;99292.84;5452639;26;20034;-75
2024/04/17 10:24:28;;;;;;;8.30;2.17;;;;;;;20.19;43.27;99288.91;5451728;26;20026;-74
2024/04/17 10:27:35;;;;;;;7.88;1.98;;;;;;;19.90;42.01;99283.06;5449193;26;20030;-75
2024/04/17 10:30:42;;;;;;;8.35;2.35;;;;;;;19.76;42.71;99278.75;5452529;26;20027;-77
2024/04/17 10:33:49;;;;;;;8.55;2.28;;;;;;;19.51;43.19;99277.88;5450089;26;20035;-75
2024/04/17 10:36:58;;;;;;;6.82;2.10;;;;;;;19.68;43.99;99283.63;5447360;26;20031;-76
2024/04/17 10:40:05;;;;;;;8.50;1.80;;;;;;;19.66;44.03;99264.78;5452569;26;20034;-76
2024/04/17 10:43:13;;;;;;;10.30;2.38;;;;;;;19.70;46.21;99271.44;5448511;26;20469;-77
2024/04/17 10:46:23;;;;;;;16.08;2.50;;;;;;;19.71;43.99;99269.56;5452336;26;20023;-77
2024/04/17 10:49:28;;;;;;;7.85;2.22;;;;;;;19.53;43.91;99264.88;5452659;26;20027;-76
2024/04/17 10:52:33;;;;;;;5.80;1.70;;;;;;;19.45;44.16;99256.97;5451703;26;20027;-76
2024/04/17 10:55:38;;;;;;;8.05;1.85;;;;;;;19.44;43.10;99258.00;5445680;26;20369;-76
2024/04/17 10:58:43;;;;;;;5.18;1.73;;;;;;;19.29;43.13;99254.72;5449857;26;20018;-75
2024/04/17 11:01:48;;;;;;;5.38;1.98;;;;;;;19.17;44.67;99253.72;5450054;26;20027;-76
2024/04/17 11:04:53;;;;;;;3.80;2.08;;;;;;;19.25;43.51;99250.78;5450073;26;20038;-76
2024/04/17 11:07:58;;;;;;;5.20;1.95;;;;;;;19.38;43.60;99246.09;5449491;26;20031;-77
2024/04/17 11:11:03;;;;;;;8.48;2.30;;;;;;;19.28;42.43;99244.91;5449523;26;20022;-76
2024/04/17 11:14:14;;;;;;;10.40;1.75;;;;;;;19.22;45.58;99234.88;5446900;26;20026;-78
2024/04/17 11:17:19;;;;;;;4.85;1.40;;;;;;;19.22;41.00;99235.72;5450600;26;20027;-78
2024/04/17 11:20:24;;;;;;;4.97;1.15;;;;;;;19.13;42.44;99242.47;5377270;26;20024;-76
2024/04/17 11:23:40;;;;;;;4.28;1.40;;;;;;;19.13;40.85;99234.31;5357987;26;20032;-73
2024/04/17 11:26:45;;;;;;;4.93;1.63;;;;;;;19.26;41.22;99230.66;5377416;26;20467;-78
2024/04/17 11:29:51;;;;;;;4.05;1.33;;;;;;;19.42;39.79;99224.75;5376959;26;20051;-78
2024/04/17 11:32:56;;;;;;;5.20;1.20;;;;;;;19.57;38.33;99228.00;5375822;26;20452;-79
2024/04/17 11:36:13;;;;;;;7.78;1.20;;;;;;;19.56;36.13;99220.03;5380427;26;20039;-78
2024/04/17 11:39:18;;;;;;;4.15;1.50;;;;;;;19.25;36.64;99215.41;5357332;26;20032;-79
2024/04/17 11:42:23;;;;;;;5.43;0.93;;;;;;;19.36;34.83;99220.13;5379435;26;20036;-79
2024/04/17 11:45:29;;;;;;;2.58;0.80;;;;;;;19.11;35.58;99216.53;5360367;26;20035;-77
2024/04/17 11:48:34;;;;;;;6.03;1.02;;;;;;;19.10;34.80;99221.13;5379201;26;20036;-78
2024/04/17 11:51:39;;;;;;;2.80;0.73;;;;;;;19.05;38.35;99223.66;5410913;26;20027;-76
2024/04/17 11:54:44;;;;;;;3.30;1.05;;;;;;;19.00;39.29;99217.19;5419002;26;20027;-77
2024/04/17 11:57:49;;;;;;;5.80;2.13;;;;;;;19.29;40.09;99219.34;5429599;26;20030;-75
2024/04/17 12:00:53;;;;;;;6.10;1.00;;;;;;;19.36;37.21;99225.56;5455019;26;20030;-77
2024/04/17 12:03:59;;;;;;;3.80;1.27;;;;;;;19.46;38.10;99218.63;5454015;26;20027;-76
2024/04/17 12:07:04;;;;;;;4.25;0.70;;;;;;;19.57;36.33;99214.38;5451071;26;20027;-76
2024/04/17 12:10:09;;;;;;;3.88;0.80;;;;;;;19.29;36.13;99225.63;5451381;26;20023;-75
2024/04/17 12:13:16;;;;;;;5.90;1.17;;;;;;;19.47;36.74;99224.91;5453621;26;20027;-76
2024/04/17 12:16:23;;;;;;;5.50;1.17;;;;;;;19.61;37.23;99223.78;5428304;26;20035;-75
2024/04/17 12:19:31;;;;;;;2.28;0.85;;;;;;;19.62;35.34;99220.00;5397424;26;20027;-76
2024/04/17 12:22:38;;;;;;;15.38;1.48;;;;;;;19.52;35.36;99219.66;5443869;26;20029;-77
2024/04/17 12:29:11;;;;;;;6.55;1.08;;;;;;;19.38;35.47;99209.91;5451491;26;20027;-75
2024/04/17 12:32:16;;;;;;;3.72;1.48;;;;;;;19.57;36.45;99221.72;5451653;26;20022;-76
2024/04/17 12:35:22;;;;;;;3.53;0.93;;;;;;;19.55;35.52;99212.94;5453756;26;20373;-76
2024/04/17 12:38:29;;;;;;;6.28;1.30;;;;;;;19.65;36.46;99219.56;5433373;26;20023;-75
2024/04/17 12:41:34;;;;;;;10.32;1.60;;;;;;;19.71;37.92;99205.06;5455556;26;20023;-76
2024/04/17 12:44:46;;;;;;;4.25;1.38;;;;;;;19.79;37.79;99199.34;5455332;26;20022;-76
2024/04/17 12:47:54;;;;;;;5.38;1.17;;;;;;;19.75;35.29;99192.66;5455297;26;20026;-76
2024/04/17 12:51:03;;;;;;;5.90;1.30;;;;;;;19.65;37.77;99196.97;5454235;26;20019;-76
2024/04/17 12:54:08;;;;;;;6.07;1.13;;;;;;;19.72;38.19;99192.28;5454801;26;20031;-76
2024/04/17 12:57:14;;;;;;;4.72;1.15;;;;;;;19.75;36.87;99191.84;5439699;26;20137;-75
2024/04/17 13:00:18;;;;;;;5.03;1.85;;;;;;;19.84;37.83;99183.19;5443788;26;20031;-74
2024/04/17 13:03:23;;;;;;;5.95;1.30;;;;;;;20.07;37.85;99177.91;5445978;26;20039;-75
2024/04/17 13:06:28;;;;;;;5.10;1.40;;;;;;;20.00;36.45;99166.25;5453959;26;20030;-75
2024/04/17 13:09:33;;;;;;;4.80;1.35;;;;;;;20.13;37.20;99171.59;5453217;26;20023;-76
2024/04/17 13:12:38;;;;;;;5.68;1.40;;;;;;;19.92;37.74;99163.81;5454055;26;20030;-73
2024/04/17 13:15:52;;;;;;;3.15;1.10;;;;;;;20.03;37.84;99165.81;5453031;26;20027;-73
2024/04/17 13:18:57;;;;;;;6.20;1.10;;;;;;;20.05;34.87;99162.84;5452027;26;20030;-74
2024/04/17 13:22:02;;;;;;;5.22;1.30;;;;;;;20.08;34.58;99165.97;5477075;26;20034;-75
2024/04/17 13:25:07;;;;;;;6.93;1.60;;;;;;;20.09;34.29;99170.38;5442140;26;20027;-75
2024/04/17 13:28:13;;;;;;;3.70;1.02;;;;;;;20.03;33.80;99157.63;5453781;26;20034;-74
2024/04/17 13:31:17;;;;;;;3.45;1.00;;;;;;;20.06;35.70;99162.66;5454034;26;20026;-75
2024/04/17 13:34:22;;;;;;;3.70;0.98;;;;;;;20.11;34.57;99164.69;5452394;26;20031;-74
2024/04/17 13:37:26;;;;;;;2.83;1.00;;;;;;;20.19;31.52;99155.41;5452703;26;20031;-76
2024/04/17 13:40:31;;;;;;;2.25;0.80;;;;;;;20.09;30.64;99156.75;5452540;26;20373;-77
2024/04/17 13:43:39;;;;;;;2.67;1.00;;;;;;;20.14;31.86;99158.81;5453232;26;20027;-76
2024/04/17 13:46:44;;;;;;;2.28;0.80;;;;;;;20.35;32.32;99149.38;5449688;26;20031;-77
2024/04/17 13:49:50;;;;;;;2.08;0.68;;;;;;;20.43;28.96;99149.06;5448645;26;20535;-78
2024/04/17 13:52:54;;;;;;;2.28;0.80;;;;;;;20.25;28.89;99139.00;5481463;26;20034;-78
2024/04/17 13:55:59;;;;;;;3.15;0.90;;;;;;;20.12;32.13;99134.50;5469557;26;20029;-77
2024/04/17 13:59:05;;;;;;;3.20;1.00;;;;;;;19.93;31.93;99134.69;5453121;26;20026;-77
2024/04/17 14:02:10;;;;;;;2.55;0.90;;;;;;;20.02;32.53;99128.72;5450079;26;20030;-77
2024/04/17 14:05:15;;;;;;;2.92;0.98;;;;;;;20.13;31.92;99114.38;5452091;26;20030;-77
2024/04/17 14:08:20;;;;;;;2.67;1.00;;;;;;;20.00;31.10;99117.22;5453180;26;20034;-77
2024/04/17 14:11:24;;;;;;;5.90;1.00;;;;;;;20.12;31.74;99117.34;5430604;26;20511;-79
2024/04/17 14:14:29;;;;;;;1.92;0.73;;;;;;;20.31;31.22;99115.47;5449183;26;20031;-79
2024/04/17 14:17:34;;;;;;;2.40;0.70;;;;;;;20.42;29.72;99118.25;5451622;26;20446;-79
2024/04/17 14:20:39;;;;;;;2.42;0.63;;;;;;;20.56;28.53;99108.03;5452620;26;20031;-78
2024/04/17 14:23:47;;;;;;;2.63;0.80;;;;;;;20.71;29.02;99106.53;5418981;26;20133;-78
2024/04/17 14:26:51;;;;;;;2.92;0.52;;;;;;;20.83;28.86;99100.31;5420294;26;20386;-77
2024/04/17 14:29:57;;;;;;;2.25;0.70;;;;;;;21.05;28.37;99101.47;5418104;26;20032;-78
2024/04/17 14:33:01;;;;;;;4.85;1.15;;;;;;;21.28;28.57;99098.84;5416709;26;20036;-78